Time;durP1;ratioP1;P1;durP2;ratioP2;P2;SDS_P1;SDS_P2;PMS_P1;PMS_P2;Temp;Humidity;BMP_temperature;BMP_pressure;BME280_temperature;BME280_humidity;BME280_pressure;Samples;Min_cycle;Max_cycle;Signal;HPM_P1;HPM_P2
2024/02/20 00:01:52;;;;;;;47.93;44.50;;;;;;;;;;4992080;28;20442;-76
2024/02/20 00:04:20;;;;;;;48.20;44.43;;;;;;;;;;4992059;28;21082;-75
2024/02/20 00:06:47;;;;;;;49.03;46.13;;;;;;;;;;4991368;28;20536;-75
2024/02/20 00:09:14;;;;;;;55.03;51.17;;;;;;;;;;4991779;28;20465;-76
2024/02/20 00:11:41;;;;;;;49.47;46.33;;;;;;;;;;4991752;28;20453;-75
2024/02/20 00:14:09;;;;;;;53.60;49.60;;;;;;;;;;4991646;28;20453;-74
2024/02/20 00:16:37;;;;;;;50.73;47.43;;;;;;;;;;4991130;28;20417;-75
2024/02/20 00:19:04;;;;;;;51.47;47.77;;;;;;;;;;4991266;28;20473;-75
2024/02/20 00:21:31;;;;;;;52.40;48.33;;;;;;;;;;4991807;28;20561;-74
2024/02/20 00:23:58;;;;;;;47.07;44.00;;;;;;;;;;4991836;28;20445;-75
2024/02/20 00:26:25;;;;;;;48.03;44.53;;;;;;;;;;4991074;28;20539;-74
2024/02/20 00:28:52;;;;;;;46.83;43.00;;;;;;;;;;4991851;28;20566;-75
2024/02/20 00:31:21;;;;;;;46.07;42.67;;;;;;;;;;4981195;28;20537;-76
2024/02/20 00:33:48;;;;;;;45.53;41.27;;;;;;;;;;4972350;28;20450;-74
2024/02/20 00:36:15;;;;;;;45.53;42.50;;;;;;;;;;4971385;28;20486;-75
2024/02/20 00:38:42;;;;;;;47.50;44.43;;;;;;;;;;4971480;28;20982;-75
2024/02/20 00:41:09;;;;;;;47.67;44.47;;;;;;;;;;4991231;28;21267;-75
2024/02/20 00:43:36;;;;;;;47.50;43.90;;;;;;;;;;4991373;28;20441;-74
2024/02/20 00:46:04;;;;;;;46.93;43.60;;;;;;;;;;4991050;28;20541;-76
2024/02/20 00:48:32;;;;;;;45.83;42.93;;;;;;;;;;4991138;28;20507;-75
2024/02/20 00:51:00;;;;;;;45.87;43.07;;;;;;;;;;4991404;28;20436;-75
2024/02/20 00:53:26;;;;;;;47.30;43.77;;;;;;;;;;4991205;28;20451;-75
2024/02/20 00:55:53;;;;;;;46.10;42.73;;;;;;;;;;4991083;28;20432;-75
2024/02/20 00:58:20;;;;;;;45.90;42.57;;;;;;;;;;4990749;28;20478;-76
2024/02/20 01:00:47;;;;;;;46.30;43.40;;;;;;;;;;4990984;28;20445;-75
2024/02/20 01:03:14;;;;;;;48.47;45.30;;;;;;;;;;4990902;28;20435;-76
2024/02/20 01:05:43;;;;;;;46.70;43.37;;;;;;;;;;4990923;28;20442;-75
2024/02/20 01:08:10;;;;;;;45.97;43.17;;;;;;;;;;4990239;28;20472;-75
2024/02/20 01:10:37;;;;;;;48.50;44.90;;;;;;;;;;4990860;28;20477;-75
2024/02/20 01:13:04;;;;;;;48.50;44.83;;;;;;;;;;4990949;28;20430;-75
2024/02/20 01:15:31;;;;;;;49.03;45.17;;;;;;;;;;4990768;28;21032;-75
2024/02/20 01:17:58;;;;;;;49.50;45.73;;;;;;;;;;4990307;28;20524;-75
2024/02/20 01:20:27;;;;;;;47.80;44.80;;;;;;;;;;4991144;28;20965;-76
2024/02/20 01:22:55;;;;;;;46.83;43.80;;;;;;;;;;4990997;28;20453;-75
2024/02/20 01:25:23;;;;;;;44.90;41.90;;;;;;;;;;4990707;28;20458;-76
2024/02/20 01:27:50;;;;;;;47.07;43.97;;;;;;;;;;4971208;28;20584;-74
2024/02/20 01:30:17;;;;;;;46.77;43.97;;;;;;;;;;4971239;28;20537;-75
2024/02/20 01:32:44;;;;;;;45.10;42.00;;;;;;;;;;4971503;28;20451;-75
2024/02/20 01:35:11;;;;;;;47.33;44.17;;;;;;;;;;4971469;28;20505;-75
2024/02/20 01:37:38;;;;;;;48.17;44.17;;;;;;;;;;4970848;28;20446;-75
2024/02/20 01:40:08;;;;;;;48.83;45.13;;;;;;;;;;4971281;28;20513;-75
2024/02/20 01:42:35;;;;;;;48.57;45.47;;;;;;;;;;4971271;28;20460;-75
2024/02/20 01:45:02;;;;;;;48.70;44.93;;;;;;;;;;4971330;28;20427;-75
2024/02/20 01:47:29;;;;;;;44.40;41.47;;;;;;;;;;4970305;28;20521;-74
2024/02/20 01:49:58;;;;;;;46.07;41.80;;;;;;;;;;4971401;28;20425;-75
2024/02/20 01:52:25;;;;;;;41.07;38.63;;;;;;;;;;4971251;28;20421;-74
2024/02/20 01:54:54;;;;;;;39.47;37.30;;;;;;;;;;4972809;28;20446;-76
2024/02/20 01:57:22;;;;;;;42.60;39.33;;;;;;;;;;4974587;28;20454;-75
2024/02/20 01:59:49;;;;;;;41.03;38.10;;;;;;;;;;4975243;28;20446;-75
2024/02/20 02:02:16;;;;;;;40.13;36.83;;;;;;;;;;4975046;28;20458;-76
2024/02/20 02:04:43;;;;;;;42.97;40.10;;;;;;;;;;4974838;28;20454;-75
2024/02/20 02:07:10;;;;;;;42.67;39.00;;;;;;;;;;4974309;28;20541;-75
2024/02/20 02:09:37;;;;;;;39.93;37.13;;;;;;;;;;4974694;28;20528;-75
2024/02/20 02:12:04;;;;;;;39.90;36.70;;;;;;;;;;4974781;28;20489;-75
2024/02/20 02:14:33;;;;;;;39.20;36.33;;;;;;;;;;4974858;28;20462;-74
2024/02/20 02:17:00;;;;;;;34.70;32.50;;;;;;;;;;4974405;28;20421;-76
2024/02/20 02:19:27;;;;;;;38.97;35.73;;;;;;;;;;4974716;28;20473;-75
2024/02/20 02:21:54;;;;;;;38.43;34.93;;;;;;;;;;4974739;28;20454;-75
2024/02/20 02:24:21;;;;;;;33.10;30.63;;;;;;;;;;4974602;28;20563;-75
2024/02/20 02:26:49;;;;;;;32.00;29.10;;;;;;;;;;4974000;28;20544;-75
2024/02/20 02:29:17;;;;;;;30.37;27.27;;;;;;;;;;4974179;28;20474;-74
2024/02/20 02:31:44;;;;;;;33.83;29.87;;;;;;;;;;4974013;28;20465;-74
2024/02/20 02:34:12;;;;;;;29.58;27.45;;;;;;;;;;4974643;28;20843;-75
2024/02/20 02:36:40;;;;;;;27.30;25.90;;;;;;;;;;4973764;28;20281;-74
2024/02/20 02:39:07;;;;;;;31.93;29.17;;;;;;;;;;4973744;28;20486;-75
2024/02/20 02:41:34;;;;;;;32.10;29.30;;;;;;;;;;4974009;28;20457;-75
2024/02/20 02:44:03;;;;;;;31.53;28.93;;;;;;;;;;4974410;28;20450;-75
2024/02/20 02:46:30;;;;;;;31.30;28.27;;;;;;;;;;4988286;28;20531;-75
2024/02/20 02:48:57;;;;;;;30.57;28.00;;;;;;;;;;4993094;28;20477;-74
2024/02/20 02:51:24;;;;;;;33.63;30.73;;;;;;;;;;4993304;28;20453;-75
2024/02/20 02:53:51;;;;;;;32.57;29.87;;;;;;;;;;4981601;28;20453;-75
2024/02/20 02:56:18;;;;;;;32.30;29.92;;;;;;;;;;4973449;28;20509;-74
2024/02/20 02:58:45;;;;;;;32.90;29.70;;;;;;;;;;4973656;28;20289;-75
2024/02/20 03:01:13;;;;;;;32.40;29.70;;;;;;;;;;4973772;28;20670;-75
2024/02/20 03:03:41;;;;;;;33.70;30.37;;;;;;;;;;4973726;28;20516;-75
2024/02/20 03:06:08;;;;;;;31.07;28.63;;;;;;;;;;4972549;28;20512;-74
2024/02/20 03:08:36;;;;;;;33.67;30.60;;;;;;;;;;4973341;28;20501;-75
2024/02/20 03:11:05;;;;;;;33.33;29.90;;;;;;;;;;4973315;28;20541;-74
2024/02/20 03:13:33;;;;;;;36.57;28.33;;;;;;;;;;4973610;28;20454;-74
2024/02/20 03:16:00;;;;;;;33.20;29.23;;;;;;;;;;4973254;28;20529;-74
2024/02/20 03:18:29;;;;;;;32.40;29.40;;;;;;;;;;4973321;28;20467;-75
2024/02/20 03:20:55;;;;;;;35.70;29.23;;;;;;;;;;4973212;28;20457;-75
2024/02/20 03:23:23;;;;;;;32.07;29.27;;;;;;;;;;4973375;28;20450;-74
2024/02/20 03:25:50;;;;;;;33.07;29.63;;;;;;;;;;4973169;28;21136;-74
2024/02/20 03:28:17;;;;;;;41.33;30.63;;;;;;;;;;4972514;28;20490;-74
2024/02/20 03:30:44;;;;;;;34.17;31.57;;;;;;;;;;4973124;28;20458;-75
2024/02/20 03:33:11;;;;;;;34.73;30.97;;;;;;;;;;4972899;28;20446;-75
2024/02/20 03:35:39;;;;;;;36.10;32.40;;;;;;;;;;4972895;28;20574;-76
2024/02/20 03:38:06;;;;;;;34.60;31.10;;;;;;;;;;4972311;28;20478;-74
2024/02/20 03:40:34;;;;;;;30.53;28.07;;;;;;;;;;4972316;28;20857;-75
2024/02/20 03:43:02;;;;;;;31.37;29.20;;;;;;;;;;4972399;28;20954;-74
2024/02/20 03:45:29;;;;;;;34.10;29.40;;;;;;;;;;4972854;28;20458;-75
2024/02/20 03:47:56;;;;;;;35.57;31.13;;;;;;;;;;4971999;28;20498;-74
2024/02/20 03:50:24;;;;;;;33.17;29.73;;;;;;;;;;4972573;28;20457;-74
2024/02/20 03:52:52;;;;;;;30.80;26.90;;;;;;;;;;4972466;28;20446;-75
2024/02/20 03:55:19;;;;;;;33.83;30.77;;;;;;;;;;4972272;28;20934;-75
2024/02/20 03:57:47;;;;;;;40.90;28.73;;;;;;;;;;4971713;28;20982;-75
2024/02/20 04:00:14;;;;;;;31.33;28.07;;;;;;;;;;4972486;28;20465;-75
2024/02/20 04:02:42;;;;;;;39.93;29.80;;;;;;;;;;4972732;28;20469;-75
2024/02/20 04:05:11;;;;;;;36.83;28.33;;;;;;;;;;4972301;28;20560;-75
2024/02/20 04:07:38;;;;;;;30.63;28.17;;;;;;;;;;4975482;28;20492;-75
2024/02/20 04:10:08;;;;;;;30.70;27.10;;;;;;;;;;4991735;28;20795;-75
2024/02/20 04:12:34;;;;;;;31.40;28.47;;;;;;;;;;4986414;28;20540;-75
2024/02/20 04:15:04;;;;;;;35.57;32.13;;;;;;;;;;4991898;28;20512;-74
2024/02/20 04:17:30;;;;;;;33.73;30.37;;;;;;;;;;4990375;28;20563;-74
2024/02/20 04:19:58;;;;;;;35.13;28.30;;;;;;;;;;4991555;28;20450;-75
2024/02/20 04:22:26;;;;;;;33.33;27.93;;;;;;;;;;4991657;28;20457;-74
2024/02/20 04:24:52;;;;;;;38.47;28.23;;;;;;;;;;4991573;28;20863;-74
2024/02/20 04:27:21;;;;;;;31.03;28.30;;;;;;;;;;4990989;28;20572;-75
2024/02/20 04:29:48;;;;;;;40.07;29.07;;;;;;;;;;4991796;28;21045;-75
2024/02/20 04:32:15;;;;;;;35.33;27.97;;;;;;;;;;4991554;28;20457;-75
2024/02/20 04:34:42;;;;;;;40.17;30.63;;;;;;;;;;4991849;28;20508;-75
2024/02/20 04:37:09;;;;;;;34.63;30.70;;;;;;;;;;4990615;28;20442;-74
2024/02/20 04:39:36;;;;;;;32.80;30.13;;;;;;;;;;4991225;28;21040;-74
2024/02/20 04:42:03;;;;;;;28.33;26.53;;;;;;;;;;4991193;28;20515;-75
2024/02/20 04:44:31;;;;;;;32.93;27.37;;;;;;;;;;4991185;28;20457;-75
2024/02/20 04:47:00;;;;;;;38.70;28.23;;;;;;;;;;4990981;28;20978;-75
2024/02/20 04:49:27;;;;;;;29.33;26.10;;;;;;;;;;4991471;28;20226;-75
2024/02/20 04:51:54;;;;;;;26.80;24.83;;;;;;;;;;4991599;28;20457;-74
2024/02/20 04:54:20;;;;;;;27.03;24.57;;;;;;;;;;4991085;28;20488;-75
2024/02/20 04:56:47;;;;;;;31.90;25.50;;;;;;;;;;4990319;28;20451;-75
2024/02/20 04:59:14;;;;;;;29.57;26.73;;;;;;;;;;4991055;28;20555;-75
2024/02/20 05:01:43;;;;;;;28.43;25.70;;;;;;;;;;4990551;28;20453;-74
2024/02/20 05:04:10;;;;;;;40.20;25.33;;;;;;;;;;4990622;28;20449;-74
2024/02/20 05:06:37;;;;;;;33.13;24.50;;;;;;;;;;4990169;28;20504;-75
2024/02/20 05:09:05;;;;;;;34.70;25.47;;;;;;;;;;4990747;28;20551;-74
2024/02/20 05:11:32;;;;;;;45.07;27.30;;;;;;;;;;4990776;28;20453;-75
2024/02/20 05:13:59;;;;;;;40.30;28.20;;;;;;;;;;4991127;28;20495;-75
2024/02/20 05:16:26;;;;;;;40.57;25.90;;;;;;;;;;4990359;28;20455;-74
2024/02/20 05:18:54;;;;;;;43.83;27.50;;;;;;;;;;4990801;28;20532;-75
2024/02/20 05:21:21;;;;;;;32.07;26.67;;;;;;;;;;4990792;28;20209;-75
2024/02/20 05:23:48;;;;;;;34.28;28.25;;;;;;;;;;4990890;28;20454;-75
2024/02/20 05:26:15;;;;;;;37.80;28.53;;;;;;;;;;4989966;28;20209;-75
2024/02/20 05:28:42;;;;;;;32.57;29.27;;;;;;;;;;4992742;28;20467;-75
2024/02/20 05:31:26;;;;;;;42.83;29.85;;;;;;;;;;4996915;28;20792;-74
2024/02/20 05:33:54;;;;;;;49.20;28.70;;;;;;;;;;4996917;28;20706;-75
2024/02/20 05:36:21;;;;;;;44.40;28.53;;;;;;;;;;4996463;28;20489;-73
2024/02/20 05:38:48;;;;;;;35.23;28.50;;;;;;;;;;4996852;28;21179;-74
2024/02/20 05:41:15;;;;;;;31.20;27.10;;;;;;;;;;4996790;28;20847;-75
2024/02/20 05:43:42;;;;;;;38.23;28.47;;;;;;;;;;4996945;28;20462;-75
2024/02/20 05:46:09;;;;;;;36.07;27.90;;;;;;;;;;4996365;28;20491;-75
2024/02/20 05:48:36;;;;;;;34.10;28.33;;;;;;;;;;4996496;28;20493;-75
2024/02/20 05:51:04;;;;;;;36.83;28.40;;;;;;;;;;4996901;28;20516;-74
2024/02/20 05:53:31;;;;;;;42.73;27.10;;;;;;;;;;4996750;28;20428;-75
2024/02/20 05:55:58;;;;;;;40.23;27.70;;;;;;;;;;4997005;28;21017;-75
2024/02/20 05:58:25;;;;;;;40.57;27.93;;;;;;;;;;4996837;28;20465;-75
2024/02/20 06:00:52;;;;;;;33.93;27.13;;;;;;;;;;4996996;28;20492;-76
2024/02/20 06:03:19;;;;;;;28.83;25.92;;;;;;;;;;4997018;28;20516;-75
2024/02/20 06:05:46;;;;;;;39.73;26.47;;;;;;;;;;4997010;28;20284;-75
2024/02/20 06:08:14;;;;;;;38.60;25.63;;;;;;;;;;4996184;28;20563;-76
2024/02/20 06:10:42;;;;;;;33.57;26.23;;;;;;;;;;4997021;28;20456;-75
2024/02/20 06:13:09;;;;;;;36.03;27.07;;;;;;;;;;4997108;28;20445;-76
2024/02/20 06:15:36;;;;;;;43.57;27.50;;;;;;;;;;4996896;28;20435;-75
2024/02/20 06:18:03;;;;;;;33.23;25.60;;;;;;;;;;4996344;28;20444;-75
2024/02/20 06:20:30;;;;;;;32.27;25.90;;;;;;;;;;4996879;28;20503;-76
2024/02/20 06:22:59;;;;;;;26.57;24.20;;;;;;;;;;4996806;28;20479;-75
2024/02/20 06:25:27;;;;;;;38.50;26.03;;;;;;;;;;4978251;28;20531;-76
2024/02/20 06:27:55;;;;;;;38.63;24.07;;;;;;;;;;4980277;28;20574;-76
2024/02/20 06:30:22;;;;;;;38.97;25.40;;;;;;;;;;4996549;28;20479;-76
2024/02/20 06:32:51;;;;;;;30.37;23.80;;;;;;;;;;4996676;28;20539;-75
2024/02/20 06:35:18;;;;;;;32.30;27.10;;;;;;;;;;4996259;28;20547;-77
2024/02/20 06:37:45;;;;;;;40.40;27.37;;;;;;;;;;4996020;28;20521;-75
2024/02/20 06:40:12;;;;;;;33.50;24.60;;;;;;;;;;4994337;28;20936;-76
2024/02/20 06:42:41;;;;;;;34.20;24.50;;;;;;;;;;4993377;28;20527;-76
2024/02/20 06:45:08;;;;;;;34.63;25.23;;;;;;;;;;4979389;28;20842;-75
2024/02/20 06:47:35;;;;;;;41.83;24.60;;;;;;;;;;4984688;28;20457;-75
2024/02/20 06:50:03;;;;;;;38.37;27.00;;;;;;;;;;4993042;28;20537;-75
2024/02/20 06:52:33;;;;;;;36.90;26.00;;;;;;;;;;4993188;28;20460;-76
2024/02/20 06:55:00;;;;;;;34.23;25.30;;;;;;;;;;4993237;28;20473;-76
2024/02/20 06:57:27;;;;;;;35.97;27.63;;;;;;;;;;4991179;28;20507;-76
2024/02/20 06:59:55;;;;;;;42.57;25.50;;;;;;;;;;4974872;28;20459;-76
2024/02/20 07:02:22;;;;;;;31.90;25.97;;;;;;;;;;4980918;28;20465;-75
2024/02/20 07:04:49;;;;;;;31.00;23.77;;;;;;;;;;4992979;28;20445;-76
2024/02/20 07:07:16;;;;;;;37.97;25.43;;;;;;;;;;4989410;28;20450;-76
2024/02/20 07:09:45;;;;;;;30.20;24.37;;;;;;;;;;4973384;28;20472;-76
2024/02/20 07:12:12;;;;;;;28.80;24.47;;;;;;;;;;4989971;28;21303;-75
2024/02/20 07:14:39;;;;;;;41.13;24.50;;;;;;;;;;4980206;28;20465;-74
2024/02/20 07:17:07;;;;;;;41.33;25.30;;;;;;;;;;4974459;28;20446;-76
2024/02/20 07:19:35;;;;;;;38.67;25.33;;;;;;;;;;4979755;28;20501;-76
2024/02/20 07:22:03;;;;;;;40.13;26.33;;;;;;;;;;4975132;28;20761;-76
2024/02/20 07:24:30;;;;;;;29.30;26.03;;;;;;;;;;4981595;28;20468;-74
2024/02/20 07:26:57;;;;;;;35.47;24.27;;;;;;;;;;4990002;28;20516;-75
2024/02/20 07:29:24;;;;;;;40.70;24.98;;;;;;;;;;4980365;28;20561;-76
2024/02/20 07:31:51;;;;;;;27.57;24.30;;;;;;;;;;4978204;28;20264;-76
2024/02/20 07:34:20;;;;;;;35.03;24.27;;;;;;;;;;4981022;28;20465;-75
2024/02/20 07:36:48;;;;;;;31.53;24.33;;;;;;;;;;4981320;28;20462;-75
2024/02/20 07:39:15;;;;;;;51.07;25.33;;;;;;;;;;4978000;28;20490;-76
2024/02/20 07:41:42;;;;;;;31.00;26.83;;;;;;;;;;4985980;28;20453;-76
2024/02/20 07:44:09;;;;;;;34.30;24.97;;;;;;;;;;4978907;28;20489;-75
2024/02/20 07:46:37;;;;;;;32.70;24.47;;;;;;;;;;4990948;28;20515;-75
2024/02/20 07:49:04;;;;;;;31.17;25.17;;;;;;;;;;4987504;28;21003;-75
2024/02/20 07:51:34;;;;;;;25.67;23.27;;;;;;;;;;4992056;28;20524;-74
2024/02/20 07:54:02;;;;;;;31.60;24.27;;;;;;;;;;4992104;28;20468;-75
2024/02/20 07:56:30;;;;;;;33.00;25.50;;;;;;;;;;4991955;28;20435;-75
2024/02/20 07:58:57;;;;;;;36.17;27.50;;;;;;;;;;4992248;28;20556;-75
2024/02/20 08:01:25;;;;;;;28.67;25.53;;;;;;;;;;4992052;28;20916;-76
2024/02/20 08:03:52;;;;;;;26.00;23.20;;;;;;;;;;4992224;28;20543;-75
2024/02/20 08:06:20;;;;;;;26.17;23.63;;;;;;;;;;4991333;28;20457;-75
2024/02/20 08:08:48;;;;;;;30.70;22.55;;;;;;;;;;4989790;28;20485;-75
2024/02/20 08:11:15;;;;;;;26.23;23.43;;;;;;;;;;4991996;28;20218;-76
2024/02/20 08:13:43;;;;;;;34.70;26.63;;;;;;;;;;4991998;28;20442;-76
2024/02/20 08:16:11;;;;;;;32.03;24.17;;;;;;;;;;4991252;28;20445;-75
2024/02/20 08:18:39;;;;;;;28.57;23.53;;;;;;;;;;4991486;28;20473;-76
2024/02/20 08:21:06;;;;;;;29.60;23.10;;;;;;;;;;4991444;28;20821;-75
2024/02/20 08:23:33;;;;;;;44.20;26.03;;;;;;;;;;4991307;28;20458;-75
2024/02/20 08:26:02;;;;;;;21.97;20.40;;;;;;;;;;4991464;28;20428;-76
2024/02/20 08:28:29;;;;;;;28.80;25.00;;;;;;;;;;4988851;28;20489;-76
2024/02/20 08:30:56;;;;;;;28.00;24.33;;;;;;;;;;4972400;28;20794;-75
2024/02/20 08:33:24;;;;;;;29.70;26.67;;;;;;;;;;4972534;28;20432;-73
2024/02/20 08:35:51;;;;;;;35.20;24.30;;;;;;;;;;4971470;28;20469;-73
2024/02/20 08:38:18;;;;;;;30.07;24.70;;;;;;;;;;4971259;28;20470;-72
2024/02/20 08:40:45;;;;;;;32.60;28.07;;;;;;;;;;4980124;28;20440;-73
2024/02/20 08:43:14;;;;;;;63.47;38.63;;;;;;;;;;4990941;28;20942;-72
2024/02/20 08:45:40;;;;;;;52.47;38.83;;;;;;;;;;4991247;28;20465;-72
2024/02/20 08:48:08;;;;;;;31.80;28.63;;;;;;;;;;4990195;28;21276;-74
2024/02/20 08:50:35;;;;;;;32.60;28.80;;;;;;;;;;4990981;28;20474;-73
2024/02/20 08:53:07;;;;;;;34.33;30.70;;;;;;;;;;4991116;28;20480;-72
2024/02/20 08:55:34;;;;;;;94.03;60.63;;;;;;;;;;4990942;28;20934;-73
2024/02/20 08:58:01;;;;;;;48.00;35.97;;;;;;;;;;4984380;28;21313;-73
2024/02/20 09:00:30;;;;;;;46.40;39.43;;;;;;;;;;4971723;28;20425;-72
2024/02/20 09:02:58;;;;;;;44.57;39.97;;;;;;;;;;4971325;28;20466;-72
2024/02/20 09:05:25;;;;;;;33.23;29.63;;;;;;;;;;4986829;28;21145;-73
2024/02/20 09:07:52;;;;;;;31.93;28.73;;;;;;;;;;4987550;28;20833;-73
2024/02/20 09:10:19;;;;;;;31.10;27.87;;;;;;;;;;4972884;28;20550;-73
2024/02/20 09:12:46;;;;;;;36.33;28.13;;;;;;;;;;4978834;28;20901;-73
2024/02/20 09:15:13;;;;;;;37.30;28.30;;;;;;;;;;4971404;28;20438;-73
2024/02/20 09:17:41;;;;;;;36.67;30.37;;;;;;;;;;4977905;28;20508;-72
2024/02/20 09:20:10;;;;;;;30.20;27.27;;;;;;;;;;4990607;28;20471;-72
2024/02/20 09:22:38;;;;;;;39.07;27.47;;;;;;;;;;4987735;28;20820;-72
2024/02/20 09:25:06;;;;;;;31.53;26.50;;;;;;;;;;5009358;28;20865;-73
2024/02/20 09:27:33;;;;;;;37.60;30.60;;;;;;;;;;5008580;28;20518;-72
2024/02/20 09:30:00;;;;;;;37.97;29.60;;;;;;;;;;4988908;28;21024;-73
2024/02/20 09:32:27;;;;;;;33.80;25.97;;;;;;;;;;4984415;28;20525;-72
2024/02/20 09:34:56;;;;;;;30.30;25.87;;;;;;;;;;4980693;28;20457;-72
2024/02/20 09:37:23;;;;;;;29.93;27.00;;;;;;;;;;4981170;28;20457;-74
2024/02/20 09:39:50;;;;;;;42.23;27.17;;;;;;;;;;4986411;28;20469;-73
2024/02/20 09:42:24;;;;;;;32.43;27.43;;;;;;;;;;4984603;28;20946;-73
2024/02/20 09:44:52;;;;;;;34.67;24.67;;;;;;;;;;4977672;28;20461;-72
2024/02/20 09:47:20;;;;;;;31.03;26.60;;;;;;;;;;4978201;28;20458;-72
2024/02/20 09:49:48;;;;;;;29.93;27.47;;;;;;;;;;4990376;28;20562;-73
2024/02/20 09:52:16;;;;;;;36.73;29.37;;;;;;;;;;4973165;28;20462;-74
2024/02/20 09:54:44;;;;;;;29.90;27.00;;;;;;;;;;4971727;28;20468;-79
2024/02/20 09:57:11;;;;;;;30.80;27.30;;;;;;;;;;4989413;28;20432;-75
2024/02/20 09:59:38;;;;;;;27.70;24.80;;;;;;;;;;4990327;28;20523;-81
2024/02/20 10:02:06;;;;;;;29.77;26.80;;;;;;;;;;4988642;28;20942;-75
2024/02/20 10:04:34;;;;;;;27.27;24.57;;;;;;;;;;4989982;28;20922;-76
2024/02/20 10:07:04;;;;;;;28.43;25.57;;;;;;;;;;4989538;28;20468;-76
2024/02/20 10:09:32;;;;;;;33.13;26.60;;;;;;;;;;4971005;28;20489;-75
2024/02/20 10:11:59;;;;;;;28.03;24.97;;;;;;;;;;4971340;28;20462;-75
2024/02/20 10:14:30;;;;;;;25.43;22.97;;;;;;;;;;4970949;28;20450;-75
2024/02/20 10:17:00;;;;;;;25.63;22.90;;;;;;;;;;4973453;28;20509;-75
2024/02/20 10:19:28;;;;;;;26.17;23.47;;;;;;;;;;4975250;28;20894;-74
2024/02/20 10:21:54;;;;;;;26.00;23.53;;;;;;;;;;4974819;28;21087;-74
2024/02/20 10:24:22;;;;;;;29.00;25.90;;;;;;;;;;4973956;28;20505;-75
2024/02/20 10:26:50;;;;;;;32.20;27.47;;;;;;;;;;4973999;28;20450;-75
2024/02/20 10:29:18;;;;;;;35.97;27.47;;;;;;;;;;4974300;28;20561;-76
2024/02/20 10:31:45;;;;;;;27.33;24.83;;;;;;;;;;4974664;28;21185;-76
2024/02/20 10:34:12;;;;;;;37.83;29.27;;;;;;;;;;4974401;28;20500;-75
2024/02/20 10:36:39;;;;;;;38.27;27.37;;;;;;;;;;4973687;28;20475;-73
2024/02/20 10:39:07;;;;;;;27.23;23.97;;;;;;;;;;4974135;28;20994;-76
2024/02/20 10:41:34;;;;;;;29.13;26.57;;;;;;;;;;5001989;28;20434;-74
2024/02/20 10:44:03;;;;;;;29.63;26.40;;;;;;;;;;4993642;28;20445;-74
2024/02/20 10:46:33;;;;;;;30.90;27.23;;;;;;;;;;4992909;28;21094;-76
2024/02/20 10:49:01;;;;;;;28.60;25.67;;;;;;;;;;4993318;28;20452;-74
2024/02/20 10:51:30;;;;;;;33.47;30.00;;;;;;;;;;4992918;28;20439;-74
2024/02/20 10:53:57;;;;;;;27.13;24.83;;;;;;;;;;4992601;28;20416;-77
2024/02/20 10:56:27;;;;;;;31.13;27.70;;;;;;;;;;4993685;28;20512;-78
2024/02/20 10:58:54;;;;;;;29.57;26.37;;;;;;;;;;4995600;28;20534;-78
2024/02/20 11:01:23;;;;;;;30.80;26.20;;;;;;;;;;4995067;28;20432;-76
2024/02/20 11:03:51;;;;;;;38.60;27.90;;;;;;;;;;4989686;28;20461;-77
2024/02/20 11:06:18;;;;;;;32.60;25.83;;;;;;;;;;4992534;28;20507;-77
2024/02/20 11:08:45;;;;;;;34.40;26.17;;;;;;;;;;4992780;28;20509;-77
2024/02/20 11:11:13;;;;;;;30.30;26.57;;;;;;;;;;4992836;28;21025;-76
2024/02/20 11:13:40;;;;;;;32.63;27.30;;;;;;;;;;4993405;28;20532;-77
2024/02/20 11:16:11;;;;;;;28.93;26.43;;;;;;;;;;4992761;28;20457;-77
2024/02/20 11:18:39;;;;;;;32.10;28.10;;;;;;;;;;4993053;28;20444;-77
2024/02/20 11:21:06;;;;;;;36.55;27.33;;;;;;;;;;4993332;28;21152;-76
2024/02/20 11:23:35;;;;;;;33.23;27.80;;;;;;;;;;4993411;28;20254;-76
2024/02/20 11:29:06;;;;;;;34.50;30.83;;;;;;;;;;4978353;28;20669;-77
2024/02/20 11:31:33;;;;;;;34.50;30.30;;;;;;;;;;4992692;28;20571;-76
2024/02/20 11:34:02;;;;;;;33.73;30.43;;;;;;;;;;4992792;28;20438;-78
2024/02/20 11:36:29;;;;;;;34.57;30.70;;;;;;;;;;4991885;28;20909;-77
2024/02/20 11:41:48;;;;;;;28.60;25.80;;;;;;;;;;4892275;29;20557;-76
2024/02/20 11:44:15;;;;;;;31.73;28.80;;;;;;;;;;4973422;28;20479;-77
2024/02/20 11:46:43;;;;;;;34.17;29.50;;;;;;;;;;4991899;28;20435;-76
2024/02/20 11:49:20;;;;;;;33.73;30.03;;;;;;;;;;4972782;28;20470;-76
2024/02/20 11:51:47;;;;;;;32.63;28.90;;;;;;;;;;4972863;28;20455;-76
2024/02/20 11:57:18;;;;;;;31.93;28.83;;;;;;;;;;4985209;28;20750;-76
2024/02/20 11:59:45;;;;;;;32.97;28.20;;;;;;;;;;4991958;28;20450;-76
2024/02/20 12:02:12;;;;;;;36.67;29.77;;;;;;;;;;4992147;28;20511;-76
2024/02/20 12:04:40;;;;;;;35.30;30.43;;;;;;;;;;4992419;28;20455;-76
2024/02/20 12:07:10;;;;;;;40.20;28.73;;;;;;;;;;4975719;28;20456;-76
2024/02/20 12:09:37;;;;;;;29.73;26.83;;;;;;;;;;4972495;28;20910;-77
2024/02/20 12:12:05;;;;;;;28.37;23.97;;;;;;;;;;4972863;28;20425;-76
2024/02/20 12:14:32;;;;;;;32.10;28.63;;;;;;;;;;4972915;28;20475;-76
2024/02/20 12:17:02;;;;;;;36.57;28.07;;;;;;;;;;4972202;28;20456;-75
2024/02/20 12:19:30;;;;;;;42.00;29.27;;;;;;;;;;4972548;28;20494;-76
2024/02/20 12:22:03;;;;;;;36.77;29.37;;;;;;;;;;4976195;28;20420;-82
2024/02/20 12:24:30;;;;;;;30.87;27.57;;;;;;;;;;4977298;28;20493;-81
2024/02/20 12:26:58;;;;;;;33.13;27.00;;;;;;;;;;4978377;28;20478;-80
2024/02/20 12:29:25;;;;;;;23.83;21.83;;;;;;;;;;4976831;28;20478;-82
2024/02/20 12:31:52;;;;;;;25.90;23.60;;;;;;;;;;4980274;28;20468;-81
2024/02/20 12:34:20;;;;;;;26.23;23.83;;;;;;;;;;4977119;28;20959;-81
2024/02/20 12:36:48;;;;;;;30.30;27.20;;;;;;;;;;4975514;28;20433;-81
2024/02/20 12:39:17;;;;;;;29.10;25.40;;;;;;;;;;4989966;28;20470;-78
2024/02/20 12:41:44;;;;;;;34.57;26.13;;;;;;;;;;4988960;28;21024;-78
2024/02/20 12:44:11;;;;;;;25.43;23.03;;;;;;;;;;4985656;28;20942;-80
2024/02/20 12:46:39;;;;;;;27.43;24.50;;;;;;;;;;4974784;28;20433;-82
2024/02/20 12:49:08;;;;;;;25.90;23.40;;;;;;;;;;4979016;28;20469;-81
2024/02/20 12:51:35;;;;;;;21.73;20.37;;;;;;;;;;4980404;28;21019;-81
2024/02/20 12:54:02;;;;;;;24.70;22.30;;;;;;;;;;4981703;28;20513;-83
2024/02/20 12:56:30;;;;;;;23.27;21.40;;;;;;;;;;4978097;28;20464;-82
2024/02/20 12:58:57;;;;;;;26.07;23.93;;;;;;;;;;4995078;28;20474;-83
2024/02/20 13:01:24;;;;;;;29.13;26.23;;;;;;;;;;4996866;28;20479;-82
2024/02/20 13:03:51;;;;;;;28.13;25.10;;;;;;;;;;4997608;28;20845;-82
2024/02/20 13:06:19;;;;;;;30.27;26.77;;;;;;;;;;4979927;28;20511;-77
2024/02/20 13:08:46;;;;;;;26.93;24.40;;;;;;;;;;4971840;28;20464;-76
2024/02/20 13:11:15;;;;;;;26.07;23.87;;;;;;;;;;4971215;28;20539;-76
2024/02/20 13:13:43;;;;;;;34.67;28.13;;;;;;;;;;4971691;28;20508;-76
2024/02/20 13:16:10;;;;;;;29.80;26.57;;;;;;;;;;4971173;28;20505;-76
2024/02/20 13:18:37;;;;;;;35.23;26.87;;;;;;;;;;4971658;28;20470;-76
2024/02/20 13:21:05;;;;;;;42.87;30.93;;;;;;;;;;4971672;28;20417;-76
2024/02/20 13:23:32;;;;;;;27.50;24.97;;;;;;;;;;4971403;28;20529;-76
2024/02/20 13:25:59;;;;;;;28.60;25.80;;;;;;;;;;4971498;28;20482;-76
2024/02/20 13:28:26;;;;;;;28.47;25.73;;;;;;;;;;4970753;28;20974;-76
2024/02/20 13:30:55;;;;;;;29.20;26.20;;;;;;;;;;4971046;28;20555;-76
2024/02/20 13:33:22;;;;;;;41.57;27.83;;;;;;;;;;4971312;28;20454;-76
2024/02/20 13:35:49;;;;;;;31.13;27.63;;;;;;;;;;4971530;28;20453;-76
2024/02/20 13:38:16;;;;;;;33.60;28.60;;;;;;;;;;4970703;28;20991;-75
2024/02/20 13:40:43;;;;;;;40.17;30.10;;;;;;;;;;4971650;28;20445;-76
2024/02/20 13:43:10;;;;;;;34.63;29.70;;;;;;;;;;4971380;28;20928;-76
2024/02/20 13:45:43;;;;;;;31.77;28.40;;;;;;;;;;4970625;28;20457;-75
2024/02/20 13:48:13;;;;;;;33.83;29.07;;;;;;;;;;4970593;28;20466;-75
2024/02/20 13:50:40;;;;;;;30.83;27.73;;;;;;;;;;4974787;28;20448;-75
2024/02/20 13:53:07;;;;;;;26.93;24.67;;;;;;;;;;4975929;28;21048;-76
2024/02/20 13:55:35;;;;;;;25.40;22.80;;;;;;;;;;4983136;28;20432;-74
2024/02/20 13:58:02;;;;;;;24.70;22.60;;;;;;;;;;4984676;28;20492;-75
2024/02/20 14:00:28;;;;;;;26.27;23.87;;;;;;;;;;4975111;28;21170;-76
2024/02/20 14:02:55;;;;;;;23.87;21.40;;;;;;;;;;4986199;28;20944;-75
2024/02/20 14:05:24;;;;;;;26.57;24.33;;;;;;;;;;4974630;28;21253;-76
2024/02/20 14:07:52;;;;;;;27.77;24.03;;;;;;;;;;4974108;28;20452;-76
2024/02/20 14:10:19;;;;;;;27.17;24.57;;;;;;;;;;4974557;28;20485;-76
2024/02/20 14:12:46;;;;;;;27.57;24.90;;;;;;;;;;4974828;28;20436;-75
2024/02/20 14:15:13;;;;;;;24.30;21.70;;;;;;;;;;4974869;28;20492;-76
2024/02/20 14:17:40;;;;;;;23.13;21.30;;;;;;;;;;4974366;28;20495;-75
2024/02/20 14:20:08;;;;;;;51.00;26.00;;;;;;;;;;4974947;28;20505;-76
2024/02/20 14:22:36;;;;;;;26.53;24.07;;;;;;;;;;4974586;28;20450;-75
2024/02/20 14:25:03;;;;;;;26.40;23.70;;;;;;;;;;4974440;28;20508;-76
2024/02/20 14:27:30;;;;;;;22.43;20.83;;;;;;;;;;4973375;28;21013;-75